createdAt,value
2019-05-23T00:00:32.349Z,6.30
2019-05-23T00:01:32.351Z,6.40
2019-05-23T00:02:32.327Z,6.90
2019-05-23T00:03:32.311Z,5.50
2019-05-23T00:04:32.317Z,7.90
2019-05-23T00:05:32.306Z,6.60
2019-05-23T00:06:32.314Z,7.00
2019-05-23T00:07:32.298Z,8.20
2019-05-23T00:08:32.260Z,7.00
2019-05-23T00:09:32.247Z,6.20
2019-05-23T00:10:32.248Z,5.80
2019-05-23T00:11:32.255Z,10.80
2019-05-23T00:12:32.218Z,5.20
2019-05-23T00:13:32.217Z,11.10
2019-05-23T00:14:32.191Z,8.50
2019-05-23T00:15:32.187Z,6.20
2019-05-23T00:16:32.207Z,6.60
2019-05-23T00:17:32.179Z,10.60
2019-05-23T00:18:32.154Z,6.30
2019-05-23T00:19:32.154Z,4.90
2019-05-23T00:20:32.118Z,8.60
2019-05-23T00:21:32.114Z,7.40
2019-05-23T00:22:32.124Z,5.30
2019-05-23T00:23:32.091Z,6.70
2019-05-23T00:24:32.100Z,7.30
2019-05-23T00:25:32.077Z,6.70
2019-05-23T00:26:32.056Z,4.90
2019-05-23T00:27:32.058Z,8.00
2019-05-23T00:28:32.055Z,7.60
2019-05-23T00:29:32.038Z,7.50
2019-05-23T00:30:32.025Z,6.10
2019-05-23T00:31:32.008Z,6.80
2019-05-23T00:32:32.015Z,7.90
2019-05-23T00:33:31.986Z,7.80
2019-05-23T00:34:31.987Z,5.80
2019-05-23T00:35:31.959Z,10.40
2019-05-23T00:36:31.970Z,6.30
2019-05-23T00:37:31.944Z,7.40
2019-05-23T00:38:31.968Z,6.60
2019-05-23T00:39:31.933Z,5.90
2019-05-23T00:40:31.904Z,7.60
2019-05-23T00:41:31.890Z,8.80
2019-05-23T00:42:31.889Z,6.20
2019-05-23T00:43:31.896Z,7.50
2019-05-23T00:44:31.864Z,7.90
2019-05-23T00:45:31.848Z,12.00
2019-05-23T00:46:31.836Z,7.70
2019-05-23T00:47:31.883Z,5.70
2019-05-23T00:48:31.823Z,5.80
2019-05-23T00:49:31.820Z,8.10
2019-05-23T00:50:31.839Z,6.00
2019-05-23T00:51:31.801Z,9.30
2019-05-23T00:52:31.803Z,4.80
2019-05-23T00:53:31.764Z,8.20
2019-05-23T00:54:31.748Z,7.90
2019-05-23T00:55:31.740Z,6.10
2019-05-23T00:56:31.728Z,4.80
2019-05-23T00:57:31.733Z,3.90
2019-05-23T00:58:31.710Z,7.40
2019-05-23T00:59:31.693Z,7.00
2019-05-23T01:00:31.685Z,5.80
2019-05-23T01:01:31.678Z,6.90
2019-05-23T01:02:31.671Z,6.00
2019-05-23T01:03:31.673Z,8.90
2019-05-23T01:04:31.633Z,8.10
2019-05-23T01:05:31.628Z,13.50
2019-05-23T01:06:31.617Z,11.30
2019-05-23T01:07:31.595Z,6.90
2019-05-23T01:08:31.605Z,7.10
2019-05-23T01:09:31.591Z,7.80
2019-05-23T01:10:31.579Z,10.20
2019-05-23T01:11:31.569Z,7.80
2019-05-23T01:12:31.546Z,5.40
2019-05-23T01:13:31.567Z,8.40
2019-05-23T01:14:31.540Z,7.10
2019-05-23T01:15:31.517Z,4.90
2019-05-23T01:16:31.501Z,4.80
2019-05-23T01:17:31.490Z,6.20
2019-05-23T01:18:31.509Z,8.80
2019-05-23T01:19:31.490Z,6.10
2019-05-23T01:20:31.465Z,11.90
2019-05-23T01:21:31.455Z,6.20
2019-05-23T01:22:31.438Z,4.90
2019-05-23T01:23:31.431Z,9.50
2019-05-23T01:24:31.428Z,4.90
2019-05-23T01:25:31.409Z,8.40
2019-05-23T01:26:31.390Z,6.80
2019-05-23T01:27:31.402Z,8.10
2019-05-23T01:28:31.377Z,5.70
2019-05-23T01:29:37.766Z,7.70
2019-05-23T01:30:32.339Z,5.50
2019-05-23T01:31:31.342Z,6.20
2019-05-23T01:32:31.341Z,9.20
2019-05-23T01:33:31.322Z,7.70
2019-05-23T01:34:31.342Z,6.80
2019-05-23T01:35:31.379Z,8.50
2019-05-23T01:36:31.332Z,4.40
2019-05-23T01:37:31.278Z,5.80
2019-05-23T01:38:31.271Z,9.20
2019-05-23T01:39:31.238Z,6.40
2019-05-23T01:40:31.255Z,9.30
2019-05-23T01:41:31.237Z,7.90
2019-05-23T01:42:31.240Z,9.90
2019-05-23T01:43:31.212Z,8.00
2019-05-23T01:44:31.200Z,7.10
2019-05-23T01:45:31.208Z,8.30
2019-05-23T01:46:31.173Z,6.20
2019-05-23T01:47:31.174Z,5.50
2019-05-23T01:48:31.153Z,6.80
2019-05-23T01:49:31.136Z,6.30
2019-05-23T01:50:31.124Z,9.90
2019-05-23T01:51:31.118Z,7.10
2019-05-23T01:52:31.104Z,7.20
2019-05-23T01:53:31.095Z,5.00
2019-05-23T01:54:31.094Z,6.80
2019-05-23T01:55:31.066Z,4.70
2019-05-23T01:56:31.082Z,8.50
2019-05-23T01:57:31.035Z,6.80
2019-05-23T01:58:31.051Z,4.50
2019-05-23T01:59:31.019Z,5.50
2019-05-23T02:00:31.031Z,8.30
2019-05-23T02:01:31.039Z,9.00
2019-05-23T02:02:30.998Z,8.90
2019-05-23T02:03:30.987Z,11.80
2019-05-23T02:04:30.976Z,4.20
2019-05-23T02:05:30.979Z,10.60
2019-05-23T02:06:30.950Z,5.50
2019-05-23T02:07:30.944Z,6.90
2019-05-23T02:08:30.921Z,5.60
2019-05-23T02:09:30.933Z,9.40
2019-05-23T02:10:30.903Z,7.20
2019-05-23T02:11:30.887Z,5.50
2019-05-23T02:12:30.912Z,4.20
2019-05-23T02:13:30.885Z,4.60
2019-05-23T02:14:30.867Z,6.00
2019-05-23T02:15:30.857Z,5.40
2019-05-23T02:16:30.844Z,10.70
2019-05-23T02:17:30.834Z,8.60
2019-05-23T02:18:30.815Z,4.30
2019-05-23T02:19:30.814Z,7.90
2019-05-23T02:20:30.787Z,7.50
2019-05-23T02:21:30.782Z,6.50
2019-05-23T02:22:30.794Z,5.90
2019-05-23T02:23:30.769Z,5.90
2019-05-23T02:24:30.756Z,7.90
2019-05-23T02:25:30.739Z,5.20
2019-05-23T02:26:30.740Z,6.80
2019-05-23T02:27:30.719Z,8.10
2019-05-23T02:28:30.727Z,8.40
2019-05-23T02:29:30.718Z,10.70
2019-05-23T02:30:34.768Z,7.70
2019-05-23T02:31:31.675Z,6.50
2019-05-23T02:32:30.670Z,5.80
2019-05-23T02:33:30.672Z,6.00
2019-05-23T02:34:30.642Z,7.10
2019-05-23T02:35:30.623Z,4.30
2019-05-23T02:36:30.630Z,9.60
2019-05-23T02:37:30.613Z,11.20
2019-05-23T02:38:30.618Z,8.50
2019-05-23T02:39:30.586Z,7.20
2019-05-23T02:40:30.586Z,8.90
2019-05-23T02:41:30.559Z,5.00
2019-05-23T02:42:30.553Z,8.50
2019-05-23T02:43:30.532Z,9.20
2019-05-23T02:44:30.567Z,5.80
2019-05-23T02:45:30.518Z,6.60
2019-05-23T02:46:30.540Z,6.20
2019-05-23T02:47:30.500Z,7.50
2019-05-23T02:48:30.474Z,6.20
2019-05-23T02:49:30.484Z,7.80
2019-05-23T02:50:30.465Z,8.00
2019-05-23T02:51:30.461Z,8.30
2019-05-23T02:52:30.432Z,8.10
2019-05-23T02:53:30.430Z,7.00
2019-05-23T02:54:30.431Z,8.60
2019-05-23T02:55:30.396Z,7.50
2019-05-23T02:56:30.404Z,7.70
2019-05-23T02:57:30.405Z,10.80
2019-05-23T02:58:30.376Z,5.10
2019-05-23T02:59:30.377Z,4.30
2019-05-23T03:00:30.341Z,7.40
2019-05-23T03:01:30.341Z,6.30
2019-05-23T03:02:30.324Z,8.30
2019-05-23T03:03:30.356Z,7.30
2019-05-23T03:04:30.315Z,8.40
2019-05-23T03:05:30.323Z,6.70
2019-05-23T03:06:30.283Z,6.50
2019-05-23T03:07:30.277Z,6.00
2019-05-23T03:08:30.271Z,6.00
2019-05-23T03:09:30.268Z,6.60
2019-05-23T03:10:30.248Z,7.90
2019-05-23T03:11:30.225Z,5.20
2019-05-23T03:12:30.215Z,5.60
2019-05-23T03:13:30.207Z,4.90
2019-05-23T03:14:30.191Z,5.80
2019-05-23T03:15:30.209Z,5.90
2019-05-23T03:16:30.185Z,6.60
2019-05-23T03:17:30.169Z,5.90
2019-05-23T03:18:34.452Z,5.10
2019-05-23T03:19:30.158Z,6.30
2019-05-23T03:20:30.138Z,6.40
2019-05-23T03:21:30.140Z,5.40
2019-05-23T03:22:30.116Z,7.10
2019-05-23T03:23:30.099Z,5.50
2019-05-23T03:24:30.090Z,7.50
2019-05-23T03:25:30.072Z,7.80
2019-05-23T03:26:30.084Z,8.70
2019-05-23T03:27:30.052Z,6.10
2019-05-23T03:28:30.053Z,8.90
2019-05-23T03:29:30.038Z,10.30
2019-05-23T03:30:30.049Z,5.40
2019-05-23T03:31:32.238Z,8.50
2019-05-23T03:32:37.412Z,8.50
2019-05-23T03:33:30.980Z,4.40
2019-05-23T03:34:29.975Z,9.20
2019-05-23T03:35:30.139Z,10.30
2019-05-23T03:36:29.975Z,6.20
2019-05-23T03:37:29.948Z,9.00
2019-05-23T03:38:29.925Z,9.30
2019-05-23T03:39:29.922Z,7.30
2019-05-23T03:40:29.932Z,7.30
2019-05-23T03:41:29.955Z,9.10
2019-05-23T03:42:29.894Z,8.00
2019-05-23T03:43:29.891Z,8.30
2019-05-23T03:44:29.863Z,6.80
2019-05-23T03:45:29.847Z,8.50
2019-05-23T03:46:29.866Z,9.90
2019-05-23T03:47:29.840Z,8.60
2019-05-23T03:48:29.826Z,9.20
2019-05-23T03:49:29.829Z,12.40
2019-05-23T03:50:29.816Z,7.50
2019-05-23T03:51:29.801Z,7.10
2019-05-23T03:52:29.800Z,6.30
2019-05-23T03:53:29.759Z,6.50
2019-05-23T03:54:29.762Z,7.20
2019-05-23T03:55:29.748Z,6.30
2019-05-23T03:56:29.740Z,6.80
2019-05-23T03:57:29.730Z,9.30
2019-05-23T03:58:29.730Z,6.20
2019-05-23T03:59:29.699Z,4.70
2019-05-23T04:00:29.719Z,6.80
2019-05-23T04:01:46.171Z,8.20
2019-05-23T04:02:30.681Z,5.50
2019-05-23T04:03:29.785Z,10.10
2019-05-23T04:04:29.661Z,7.10
2019-05-23T04:05:29.635Z,11.50
2019-05-23T04:06:29.622Z,7.10
2019-05-23T04:07:29.626Z,10.40
2019-05-23T04:08:29.617Z,7.70
2019-05-23T04:09:29.619Z,9.00
2019-05-23T04:10:29.570Z,7.00
2019-05-23T04:11:29.565Z,9.40
2019-05-23T04:12:29.566Z,11.00
2019-05-23T04:13:29.586Z,7.60
2019-05-23T04:14:29.542Z,9.30
2019-05-23T04:15:29.530Z,10.00
2019-05-23T04:16:30.582Z,7.50
2019-05-23T04:17:29.507Z,7.20
2019-05-23T04:18:29.512Z,6.30
2019-05-23T04:19:29.482Z,7.00
2019-05-23T04:20:29.476Z,8.20
2019-05-23T04:21:29.465Z,9.50
2019-05-23T04:22:29.451Z,11.80
2019-05-23T04:23:29.465Z,9.50
2019-05-23T04:24:29.449Z,9.70
2019-05-23T04:25:29.434Z,9.60
2019-05-23T04:26:29.401Z,8.50
2019-05-23T04:27:29.393Z,11.30
2019-05-23T04:28:29.387Z,5.80
2019-05-23T04:29:29.388Z,9.90
2019-05-23T04:30:29.362Z,6.20
2019-05-23T04:31:29.361Z,11.10
2019-05-23T04:32:29.327Z,6.60
2019-05-23T04:33:29.313Z,10.80
2019-05-23T04:34:29.327Z,7.50
2019-05-23T04:35:29.315Z,8.70
2019-05-23T04:36:29.293Z,14.10
2019-05-23T04:37:29.286Z,9.90
2019-05-23T04:38:29.274Z,8.70
2019-05-23T04:39:29.284Z,12.90
2019-05-23T04:40:29.252Z,9.30
2019-05-23T04:41:29.269Z,9.50
2019-05-23T04:42:29.244Z,7.40
2019-05-23T04:43:29.232Z,10.50
2019-05-23T04:44:29.232Z,8.80
2019-05-23T04:45:29.198Z,9.50
2019-05-23T04:46:29.183Z,9.60
2019-05-23T04:47:29.160Z,7.50
2019-05-23T04:48:29.171Z,8.60
2019-05-23T04:49:29.152Z,8.00
2019-05-23T04:50:29.171Z,7.60
2019-05-23T04:51:29.136Z,11.10
2019-05-23T04:52:29.119Z,10.20
2019-05-23T04:53:29.095Z,10.40
2019-05-23T04:54:29.108Z,8.90
2019-05-23T04:55:29.111Z,9.40
2019-05-23T04:56:29.090Z,10.10
2019-05-23T04:57:29.088Z,5.30
2019-05-23T04:58:29.050Z,7.20
2019-05-23T04:59:29.039Z,7.60
2019-05-23T05:00:29.071Z,9.70
2019-05-23T05:01:29.024Z,7.20
2019-05-23T05:02:29.016Z,5.80
2019-05-23T05:03:29.003Z,5.20
2019-05-23T05:04:28.997Z,6.70
2019-05-23T05:05:28.999Z,6.40
2019-05-23T05:06:28.954Z,7.60
2019-05-23T05:07:28.954Z,7.80
2019-05-23T05:08:28.960Z,6.30
2019-05-23T05:09:28.938Z,7.80
2019-05-23T05:10:28.933Z,5.90
2019-05-23T05:11:30.568Z,8.20
2019-05-23T05:12:28.918Z,6.60
2019-05-23T05:13:28.880Z,5.80
2019-05-23T05:14:28.878Z,9.00
2019-05-23T05:15:28.890Z,8.90
2019-05-23T05:16:28.865Z,6.50
2019-05-23T05:17:28.858Z,5.80
2019-05-23T05:18:28.842Z,6.00
2019-05-23T05:19:28.823Z,5.80
2019-05-23T05:20:28.846Z,4.40
2019-05-23T05:21:28.821Z,4.90
2019-05-23T05:22:28.820Z,6.80
2019-05-23T05:23:28.792Z,4.80
2019-05-23T05:24:29.442Z,6.80
2019-05-23T05:25:28.763Z,4.10
2019-05-23T05:26:28.748Z,3.70
2019-05-23T05:27:28.736Z,5.70
2019-05-23T05:28:28.727Z,9.70
2019-05-23T05:29:28.719Z,5.70
2019-05-23T05:30:28.696Z,5.70
2019-05-23T05:31:28.740Z,5.90
2019-05-23T05:32:43.430Z,3.40
2019-05-23T05:33:29.689Z,3.80
2019-05-23T05:34:28.659Z,5.60
2019-05-23T05:35:28.685Z,4.50
2019-05-23T05:36:28.622Z,7.60
2019-05-23T05:37:28.626Z,4.00
2019-05-23T05:38:29.316Z,6.50
2019-05-23T05:39:28.593Z,6.60
2019-05-23T05:40:28.615Z,3.00
2019-05-23T05:41:28.580Z,4.20
2019-05-23T05:42:28.585Z,4.50
2019-05-23T05:43:28.557Z,3.10
2019-05-23T05:44:28.568Z,5.10
2019-05-23T05:45:28.528Z,5.10
2019-05-23T05:46:28.540Z,6.90
2019-05-23T05:47:28.521Z,7.30
2019-05-23T05:48:29.172Z,5.90
2019-05-23T05:49:28.484Z,3.70
2019-05-23T05:50:28.470Z,3.60
2019-05-23T05:51:28.473Z,5.20
2019-05-23T05:52:28.465Z,5.80
2019-05-23T05:53:28.474Z,7.60
2019-05-23T05:54:29.033Z,4.40
2019-05-23T05:55:28.443Z,5.30
2019-05-23T05:56:28.402Z,3.50
2019-05-23T05:57:28.388Z,3.50
2019-05-23T05:58:28.398Z,4.60
2019-05-23T05:59:28.383Z,4.20
2019-05-23T06:00:28.374Z,4.40
2019-05-23T06:01:34.002Z,4.20
2019-05-23T06:02:29.331Z,5.00
2019-05-23T06:03:28.338Z,2.50
2019-05-23T06:04:28.325Z,4.30
2019-05-23T06:05:28.315Z,3.30
2019-05-23T06:06:28.334Z,6.50
2019-05-23T06:07:28.299Z,8.50
2019-05-23T06:08:28.291Z,6.10
2019-05-23T06:09:28.278Z,4.00
2019-05-23T06:10:28.251Z,5.40
2019-05-23T06:11:28.240Z,3.70
2019-05-23T06:12:28.247Z,5.50
2019-05-23T06:13:28.239Z,4.40
2019-05-23T06:14:28.211Z,3.90
2019-05-23T06:15:28.208Z,4.90
2019-05-23T06:16:28.198Z,5.30
2019-05-23T06:17:28.174Z,3.90
2019-05-23T06:18:28.186Z,5.70
2019-05-23T06:19:28.178Z,4.00
2019-05-23T06:20:28.152Z,3.50
2019-05-23T06:21:28.145Z,8.40
2019-05-23T06:22:28.137Z,5.00
2019-05-23T06:23:28.126Z,3.40
2019-05-23T06:24:41.861Z,4.80
2019-05-23T06:25:29.100Z,4.30
2019-05-23T06:26:28.088Z,4.40
2019-05-23T06:27:28.075Z,4.40
2019-05-23T06:28:28.074Z,3.40
2019-05-23T06:29:28.043Z,4.70
2019-05-23T06:30:28.044Z,6.20
2019-05-23T06:31:28.016Z,3.90
2019-05-23T06:32:28.034Z,3.70
2019-05-23T06:33:28.008Z,5.10
2019-05-23T06:34:28.064Z,2.70
2019-05-23T06:35:27.978Z,2.50
2019-05-23T06:36:27.981Z,2.70
2019-05-23T06:37:27.962Z,7.50
2019-05-23T06:38:27.967Z,4.70
2019-05-23T06:39:27.982Z,6.60
2019-05-23T06:40:27.920Z,4.00
2019-05-23T06:41:27.917Z,4.10
2019-05-23T06:42:27.916Z,4.90
2019-05-23T06:43:27.898Z,4.30
2019-05-23T06:44:27.903Z,4.10
2019-05-23T06:45:27.879Z,2.80
2019-05-23T06:46:27.877Z,3.00
2019-05-23T06:47:28.483Z,2.20
2019-05-23T06:48:27.893Z,3.50
2019-05-23T06:49:27.860Z,2.70
2019-05-23T06:50:27.840Z,4.70
2019-05-23T06:51:27.826Z,3.40
2019-05-23T06:52:27.803Z,5.20
2019-05-23T06:53:27.793Z,3.20
2019-05-23T06:54:27.801Z,4.20
2019-05-23T06:55:27.779Z,8.30
2019-05-23T06:56:27.769Z,3.70
2019-05-23T06:57:27.761Z,4.70
2019-05-23T06:58:27.778Z,6.20
2019-05-23T06:59:27.736Z,5.90
2019-05-23T07:00:27.811Z,1.80
2019-05-23T07:01:27.706Z,2.90
2019-05-23T07:02:31.568Z,7.20
2019-05-23T07:03:41.740Z,4.40
2019-05-23T07:04:28.692Z,2.80
2019-05-23T07:05:27.710Z,3.50
2019-05-23T07:06:27.681Z,2.60
2019-05-23T07:07:27.646Z,2.10
2019-05-23T07:08:27.649Z,3.20
2019-05-23T07:09:27.631Z,3.60
2019-05-23T07:10:27.608Z,3.70
2019-05-23T07:11:27.617Z,3.70
2019-05-23T07:12:27.622Z,2.30
2019-05-23T07:13:27.589Z,3.00
2019-05-23T07:14:27.556Z,2.40
2019-05-23T07:15:27.546Z,3.90
2019-05-23T07:16:27.567Z,2.30
2019-05-23T07:17:27.546Z,3.20
2019-05-23T07:18:27.535Z,1.60
2019-05-23T07:19:27.524Z,2.70
2019-05-23T07:20:27.499Z,3.30
2019-05-23T07:21:27.534Z,1.50
2019-05-23T07:22:27.493Z,2.40
2019-05-23T07:23:27.481Z,3.30
2019-05-23T07:24:27.460Z,5.60
2019-05-23T07:25:27.465Z,2.30
2019-05-23T07:26:27.470Z,2.70
2019-05-23T07:27:27.446Z,3.30
2019-05-23T07:28:27.425Z,2.80
2019-05-23T07:29:27.418Z,5.30
2019-05-23T07:30:27.610Z,1.90
2019-05-23T07:31:27.400Z,2.60
2019-05-23T07:32:27.392Z,3.10
2019-05-23T07:33:27.376Z,3.90
2019-05-23T07:34:27.361Z,4.30
2019-05-23T07:35:27.357Z,2.40
2019-05-23T07:36:27.345Z,2.60
2019-05-23T07:37:27.348Z,5.10
2019-05-23T07:38:27.317Z,4.80
2019-05-23T07:39:27.313Z,5.00
2019-05-23T07:40:27.320Z,3.70
2019-05-23T07:41:27.292Z,2.30
2019-05-23T07:42:27.311Z,2.10
2019-05-23T07:43:27.278Z,2.50
2019-05-23T07:44:27.256Z,3.30
2019-05-23T07:45:27.239Z,1.80
2019-05-23T07:46:27.237Z,3.20
2019-05-23T07:47:27.233Z,2.10
2019-05-23T07:48:27.257Z,3.00
2019-05-23T07:49:27.215Z,1.30
2019-05-23T07:50:27.218Z,2.70
2019-05-23T07:51:29.741Z,3.70
2019-05-23T07:52:27.171Z,2.40
2019-05-23T07:53:27.192Z,3.20
2019-05-23T07:54:27.174Z,3.20
2019-05-23T07:55:27.157Z,1.90
2019-05-23T07:56:27.134Z,2.00
2019-05-23T07:57:27.118Z,3.00
2019-05-23T07:58:27.112Z,2.00
2019-05-23T07:59:27.126Z,1.30
2019-05-23T08:00:27.095Z,2.20
2019-05-23T08:01:27.107Z,4.90
2019-05-23T08:02:27.087Z,3.50
2019-05-23T08:03:27.066Z,3.30
2019-05-23T08:04:27.069Z,2.20
2019-05-23T08:05:27.054Z,3.10
2019-05-23T08:06:27.026Z,3.30
2019-05-23T08:07:27.031Z,4.40
2019-05-23T08:08:27.025Z,3.60
2019-05-23T08:09:27.006Z,2.80
2019-05-23T08:10:33.797Z,2.60
2019-05-23T08:11:27.985Z,4.60
2019-05-23T08:12:26.994Z,1.80
2019-05-23T08:13:26.970Z,4.20
2019-05-23T08:14:26.964Z,1.50
2019-05-23T08:15:26.973Z,2.50
2019-05-23T08:16:26.947Z,2.80
2019-05-23T08:17:26.926Z,1.70
2019-05-23T08:18:26.918Z,2.70
2019-05-23T08:19:26.899Z,2.30
2019-05-23T08:20:26.944Z,4.10
2019-05-23T08:21:26.894Z,2.50
2019-05-23T08:22:26.883Z,3.50
2019-05-23T08:23:26.868Z,3.50
2019-05-23T08:24:26.871Z,2.00
2019-05-23T08:25:26.845Z,3.00
2019-05-23T08:26:26.852Z,2.00
2019-05-23T08:27:26.836Z,2.50
2019-05-23T08:28:26.813Z,1.80
2019-05-23T08:29:27.090Z,3.60
2019-05-23T08:30:26.826Z,5.20
2019-05-23T08:31:26.784Z,4.10
2019-05-23T08:32:26.786Z,4.00
2019-05-23T08:33:26.785Z,3.10
2019-05-23T08:34:40.910Z,1.30
2019-05-23T08:35:27.767Z,3.40
2019-05-23T08:36:26.741Z,2.70
2019-05-23T08:37:26.717Z,2.20
2019-05-23T08:38:26.727Z,4.40
2019-05-23T08:39:26.715Z,4.70
2019-05-23T08:40:26.705Z,3.10
2019-05-23T08:41:26.704Z,2.70
2019-05-23T08:42:26.681Z,3.40
2019-05-23T08:43:26.677Z,3.60
2019-05-23T08:44:26.671Z,6.10
2019-05-23T08:45:26.664Z,7.20
2019-05-23T08:46:26.671Z,2.00
2019-05-23T08:47:26.645Z,1.80
2019-05-23T08:48:26.624Z,4.50
2019-05-23T08:49:26.619Z,2.20
2019-05-23T08:50:26.607Z,2.00
2019-05-23T08:51:26.614Z,2.70
2019-05-23T08:52:26.604Z,1.90
2019-05-23T08:53:26.586Z,4.20
2019-05-23T08:54:26.576Z,6.00
2019-05-23T08:55:26.592Z,6.00
2019-05-23T08:56:26.560Z,2.10
2019-05-23T08:57:26.560Z,2.00
2019-05-23T08:58:26.543Z,2.10
2019-05-23T08:59:26.530Z,3.10
2019-05-23T09:00:26.522Z,2.40
2019-05-23T09:01:26.499Z,1.10
2019-05-23T09:02:26.521Z,2.90
2019-05-23T09:03:26.484Z,1.90
2019-05-23T09:04:26.495Z,1.30
2019-05-23T09:05:26.472Z,3.50
2019-05-23T09:06:26.467Z,1.60
2019-05-23T09:07:26.480Z,4.00
2019-05-23T09:08:26.458Z,2.40
2019-05-23T09:09:29.998Z,1.40
2019-05-23T09:10:26.417Z,3.20
2019-05-23T09:11:26.423Z,1.70
2019-05-23T09:12:26.410Z,2.40
2019-05-23T09:13:26.429Z,1.80
2019-05-23T09:14:26.383Z,2.50
2019-05-23T09:15:26.385Z,2.50
2019-05-23T09:16:26.370Z,1.60
2019-05-23T09:17:26.363Z,2.10
2019-05-23T09:18:26.373Z,3.30
2019-05-23T09:19:26.349Z,2.20
2019-05-23T09:20:26.325Z,4.10
2019-05-23T09:21:26.323Z,1.50
2019-05-23T09:22:26.312Z,2.00
2019-05-23T09:23:26.349Z,4.60
2019-05-23T09:24:26.306Z,1.80
2019-05-23T09:25:26.291Z,2.20
2019-05-23T09:26:26.286Z,1.90
2019-05-23T09:27:26.274Z,3.50
2019-05-23T09:28:26.272Z,4.00
2019-05-23T09:29:26.250Z,2.80
2019-05-23T09:30:26.250Z,4.00
2019-05-23T09:31:26.228Z,6.10
2019-05-23T09:32:26.226Z,2.30
2019-05-23T09:33:26.208Z,1.30
2019-05-23T09:34:26.213Z,2.40
2019-05-23T09:35:26.186Z,3.10
2019-05-23T09:36:26.199Z,2.80
2019-05-23T09:37:26.180Z,2.10
2019-05-23T09:38:26.171Z,2.00
2019-05-23T09:39:26.178Z,3.00
2019-05-23T09:40:26.141Z,2.60
2019-05-23T09:41:26.131Z,1.30
2019-05-23T09:42:26.139Z,2.00
2019-05-23T09:43:26.108Z,3.80
2019-05-23T09:44:26.124Z,2.10
2019-05-23T09:45:26.104Z,3.50
2019-05-23T09:46:26.084Z,2.50
2019-05-23T09:47:26.197Z,3.40
2019-05-23T09:48:26.074Z,3.20
2019-05-23T09:49:26.085Z,2.30
2019-05-23T09:50:26.080Z,3.20
2019-05-23T09:51:26.066Z,2.40
2019-05-23T09:52:26.030Z,2.80
2019-05-23T09:53:26.031Z,1.60
2019-05-23T09:54:26.005Z,2.00
2019-05-23T09:55:26.015Z,3.20
2019-05-23T09:56:26.005Z,2.90
2019-05-23T09:57:26.016Z,2.70
2019-05-23T09:58:25.982Z,3.50
2019-05-23T09:59:25.981Z,4.10
2019-05-23T10:00:25.977Z,4.40
2019-05-23T10:01:25.952Z,2.30
2019-05-23T10:02:25.939Z,2.50
2019-05-23T10:03:25.947Z,2.30
2019-05-23T10:04:25.925Z,3.00
2019-05-23T10:05:41.988Z,2.20
2019-05-23T10:06:26.907Z,2.00
2019-05-23T10:07:25.892Z,1.30
2019-05-23T10:08:25.892Z,1.50
2019-05-23T10:09:25.879Z,1.90
2019-05-23T10:10:25.876Z,2.20
2019-05-23T10:11:25.880Z,3.10
2019-05-23T10:12:25.851Z,1.80
2019-05-23T10:13:38.383Z,2.10
2019-05-23T10:14:26.831Z,1.40
2019-05-23T10:15:25.834Z,1.00
2019-05-23T10:16:25.828Z,1.30
2019-05-23T10:17:25.865Z,1.50
2019-05-23T10:18:25.788Z,2.20
2019-05-23T10:19:25.803Z,1.90
2019-05-23T10:20:25.780Z,2.40
2019-05-23T10:21:25.783Z,3.50
2019-05-23T10:22:25.767Z,1.00
2019-05-23T10:23:25.761Z,3.70
2019-05-23T10:24:25.739Z,2.40
2019-05-23T10:25:25.736Z,2.70
2019-05-23T10:26:25.736Z,2.90
2019-05-23T10:27:25.724Z,1.80
2019-05-23T10:28:25.729Z,1.70
2019-05-23T10:29:25.700Z,1.60
2019-05-23T10:30:25.707Z,4.40
2019-05-23T10:31:25.685Z,4.10
2019-05-23T10:32:25.672Z,2.40
2019-05-23T10:33:25.681Z,1.60
2019-05-23T10:34:25.663Z,1.50
2019-05-23T10:35:25.648Z,1.40
2019-05-23T10:36:25.636Z,1.20
2019-05-23T10:37:25.646Z,1.90
2019-05-23T10:38:29.126Z,3.10
2019-05-23T10:39:25.726Z,1.70
2019-05-23T10:40:25.610Z,3.70
2019-05-23T10:41:25.611Z,2.20
2019-05-23T10:42:25.598Z,2.20
2019-05-23T10:43:25.583Z,2.50
2019-05-23T10:44:25.569Z,1.90
2019-05-23T10:45:25.570Z,3.70
2019-05-23T10:46:25.542Z,2.00
2019-05-23T10:47:25.547Z,2.00
2019-05-23T10:48:25.531Z,1.30
2019-05-23T10:49:25.523Z,2.00
2019-05-23T10:50:25.507Z,1.80
2019-05-23T10:51:25.497Z,1.40
2019-05-23T10:52:25.513Z,1.60
2019-05-23T10:53:25.489Z,2.10
2019-05-23T10:54:25.482Z,2.00
2019-05-23T10:55:25.487Z,2.50
2019-05-23T10:56:25.457Z,2.60
2019-05-23T10:57:25.445Z,4.40
2019-05-23T10:58:25.434Z,2.80
2019-05-23T10:59:25.424Z,2.30
2019-05-23T11:00:25.451Z,2.70
2019-05-23T11:01:25.409Z,3.00
2019-05-23T11:02:27.063Z,1.50
2019-05-23T11:03:25.418Z,2.20
2019-05-23T11:04:25.381Z,2.60
2019-05-23T11:05:25.374Z,3.20
2019-05-23T11:06:25.381Z,2.40
2019-05-23T11:07:25.367Z,2.00
2019-05-23T11:08:29.120Z,2.40
2019-05-23T11:09:37.420Z,1.70
2019-05-23T11:10:26.351Z,2.30
2019-05-23T11:11:25.354Z,1.80
2019-05-23T11:12:25.316Z,4.30
2019-05-23T11:13:25.319Z,3.80
2019-05-23T11:14:25.326Z,2.00
2019-05-23T11:15:25.371Z,2.90
2019-05-23T11:16:25.286Z,1.90
2019-05-23T11:17:25.270Z,3.00
2019-05-23T11:18:25.257Z,2.80
2019-05-23T11:19:25.247Z,2.60
2019-05-23T11:20:25.254Z,2.60
2019-05-23T11:21:25.275Z,2.60
2019-05-23T11:22:25.212Z,2.80
2019-05-23T11:23:25.206Z,2.80
2019-05-23T11:24:25.197Z,1.80
2019-05-23T11:25:25.211Z,1.70
2019-05-23T11:26:25.202Z,2.20
2019-05-23T11:27:25.178Z,3.20
2019-05-23T11:28:25.159Z,1.80
2019-05-23T11:29:27.459Z,3.60
2019-05-23T11:30:25.142Z,2.90
2019-05-23T11:31:25.130Z,1.90
2019-05-23T11:32:25.150Z,2.00
2019-05-23T11:33:25.120Z,2.40
2019-05-23T11:34:25.126Z,4.80
2019-05-23T11:35:25.105Z,2.80
2019-05-23T11:36:35.465Z,1.80
2019-05-23T11:37:26.273Z,2.80
2019-05-23T11:38:25.083Z,2.30
2019-05-23T11:39:25.273Z,2.60
2019-05-23T11:40:25.041Z,2.10
2019-05-23T11:41:25.114Z,2.20
2019-05-23T11:42:25.046Z,2.90
2019-05-23T11:43:25.028Z,4.70
2019-05-23T11:44:25.022Z,3.90
2019-05-23T11:45:25.011Z,2.60
2019-05-23T11:46:24.993Z,1.50
2019-05-23T11:47:24.996Z,2.60
2019-05-23T11:48:24.994Z,2.30
2019-05-23T11:49:24.964Z,1.70
2019-05-23T11:50:24.949Z,2.40
2019-05-23T11:51:25.962Z,1.90
2019-05-23T11:52:24.935Z,5.30
2019-05-23T11:53:25.198Z,5.20
2019-05-23T11:54:24.899Z,3.20
2019-05-23T11:55:24.901Z,1.70
2019-05-23T11:56:24.906Z,8.60
2019-05-23T11:57:24.909Z,1.90
2019-05-23T11:58:24.890Z,2.50
2019-05-23T11:59:24.867Z,3.00
2019-05-23T12:00:24.877Z,2.00
2019-05-23T12:01:24.842Z,1.90
2019-05-23T12:02:24.831Z,2.60
2019-05-23T12:03:24.845Z,2.60
2019-05-23T12:04:24.829Z,2.60
2019-05-23T12:05:24.884Z,2.60
2019-05-23T12:06:26.253Z,2.20
2019-05-23T12:07:25.611Z,3.80
2019-05-23T12:08:24.774Z,1.60
2019-05-23T12:09:24.797Z,2.20
2019-05-23T12:10:24.791Z,4.40
2019-05-23T12:11:24.753Z,3.60
2019-05-23T12:12:24.740Z,2.40
2019-05-23T12:13:24.721Z,2.00
2019-05-23T12:14:24.728Z,3.70
2019-05-23T12:15:24.706Z,2.40
2019-05-23T12:16:24.706Z,2.30
2019-05-23T12:17:24.767Z,1.70
2019-05-23T12:18:24.685Z,2.30
2019-05-23T12:19:24.953Z,1.80
2019-05-23T12:20:24.664Z,2.90
2019-05-23T12:21:24.672Z,2.60
2019-05-23T12:22:24.632Z,2.60
2019-05-23T12:23:24.628Z,2.70
2019-05-23T12:24:24.628Z,3.70
2019-05-23T12:25:24.664Z,2.30
2019-05-23T12:26:24.598Z,3.60
2019-05-23T12:27:24.608Z,3.30
2019-05-23T12:28:24.590Z,2.10
2019-05-23T12:29:24.588Z,6.10
2019-05-23T12:30:24.589Z,3.40
2019-05-23T12:31:24.561Z,2.70
2019-05-23T12:32:24.548Z,3.00
2019-05-23T12:33:24.532Z,2.90
2019-05-23T12:34:24.517Z,2.50
2019-05-23T12:35:24.535Z,3.20
2019-05-23T12:36:24.499Z,2.20
2019-05-23T12:37:24.498Z,2.50
2019-05-23T12:38:24.488Z,2.30
2019-05-23T12:39:24.474Z,2.90
2019-05-23T12:40:24.470Z,3.10
2019-05-23T12:41:24.441Z,2.10
2019-05-23T12:42:24.440Z,2.80
2019-05-23T12:43:24.436Z,1.70
2019-05-23T12:44:24.432Z,2.10
2019-05-23T12:45:24.441Z,2.00
2019-05-23T12:46:24.398Z,1.90
2019-05-23T12:47:24.368Z,2.80
2019-05-23T12:48:24.384Z,1.80
2019-05-23T12:49:24.372Z,2.40
2019-05-23T12:50:24.378Z,2.50
2019-05-23T12:51:24.382Z,3.50
2019-05-23T12:52:24.340Z,3.20
2019-05-23T12:53:24.326Z,1.70
2019-05-23T12:54:24.311Z,2.10
2019-05-23T12:55:24.305Z,2.50
2019-05-23T12:56:24.316Z,3.40
2019-05-23T12:57:24.296Z,2.90
2019-05-23T12:58:24.281Z,2.60
2019-05-23T12:59:24.264Z,2.90
2019-05-23T13:00:24.259Z,3.00
2019-05-23T13:01:24.232Z,1.70
2019-05-23T13:02:24.227Z,2.50
2019-05-23T13:03:24.226Z,3.30
2019-05-23T13:04:24.222Z,1.60
2019-05-23T13:05:24.192Z,2.50
2019-05-23T13:06:24.219Z,2.90
2019-05-23T13:07:35.937Z,2.70
2019-05-23T13:08:25.166Z,2.20
2019-05-23T13:09:24.217Z,1.30
2019-05-23T13:10:25.424Z,3.00
2019-05-23T13:11:24.147Z,1.60
2019-05-23T13:12:24.112Z,2.10
2019-05-23T13:13:24.110Z,1.40
2019-05-23T13:14:24.089Z,1.40
2019-05-23T13:15:24.076Z,2.90
2019-05-23T13:16:24.098Z,2.20
2019-05-23T13:17:24.066Z,3.70